sensor_id;sensor_type;location;lat;lon;timestamp;P1;durP1;ratioP1;P2;durP2;ratioP2
13208;SDS011;6669;42.678;23.332;2022-09-24T00:01:48;3.47;;;2.50;;
13208;SDS011;6669;42.678;23.332;2022-09-24T00:04:17;4.23;;;2.53;;
13208;SDS011;6669;42.678;23.332;2022-09-24T00:06:47;3.00;;;2.63;;
13208;SDS011;6669;42.678;23.332;2022-09-24T00:09:15;4.23;;;2.90;;
13208;SDS011;6669;42.678;23.332;2022-09-24T00:11:47;3.57;;;3.03;;
13208;SDS011;6669;42.678;23.332;2022-09-24T00:14:16;3.13;;;2.77;;
13208;SDS011;6669;42.678;23.332;2022-09-24T00:16:44;2.67;;;2.47;;
13208;SDS011;6669;42.678;23.332;2022-09-24T00:19:12;3.10;;;2.60;;
13208;SDS011;6669;42.678;23.332;2022-09-24T00:21:41;5.03;;;2.97;;
13208;SDS011;6669;42.678;23.332;2022-09-24T00:24:11;3.57;;;3.00;;
13208;SDS011;6669;42.678;23.332;2022-09-24T00:27:02;3.37;;;3.07;;
13208;SDS011;6669;42.678;23.332;2022-09-24T00:29:31;4.23;;;2.73;;
13208;SDS011;6669;42.678;23.332;2022-09-24T00:32:00;3.23;;;2.93;;
13208;SDS011;6669;42.678;23.332;2022-09-24T00:34:30;3.53;;;3.10;;
13208;SDS011;6669;42.678;23.332;2022-09-24T00:36:58;3.90;;;3.37;;
13208;SDS011;6669;42.678;23.332;2022-09-24T00:39:27;3.60;;;2.90;;
13208;SDS011;6669;42.678;23.332;2022-09-24T00:41:55;3.77;;;3.27;;
13208;SDS011;6669;42.678;23.332;2022-09-24T00:44:40;5.63;;;3.03;;
13208;SDS011;6669;42.678;23.332;2022-09-24T00:47:25;4.30;;;3.37;;
13208;SDS011;6669;42.678;23.332;2022-09-24T00:49:59;4.70;;;3.70;;
13208;SDS011;6669;42.678;23.332;2022-09-24T00:52:33;3.47;;;3.13;;
13208;SDS011;6669;42.678;23.332;2022-09-24T00:55:06;5.53;;;3.43;;
13208;SDS011;6669;42.678;23.332;2022-09-24T00:57:36;3.90;;;3.13;;
13208;SDS011;6669;42.678;23.332;2022-09-24T01:00:07;4.40;;;3.63;;
13208;SDS011;6669;42.678;23.332;2022-09-24T01:02:36;4.07;;;3.50;;
13208;SDS011;6669;42.678;23.332;2022-09-24T01:05:08;3.57;;;3.13;;
13208;SDS011;6669;42.678;23.332;2022-09-24T01:07:36;4.17;;;3.43;;
13208;SDS011;6669;42.678;23.332;2022-09-24T01:10:06;3.57;;;3.23;;
13208;SDS011;6669;42.678;23.332;2022-09-24T01:12:36;5.30;;;3.87;;
13208;SDS011;6669;42.678;23.332;2022-09-24T01:15:14;4.27;;;3.37;;
13208;SDS011;6669;42.678;23.332;2022-09-24T01:17:51;4.23;;;3.40;;
13208;SDS011;6669;42.678;23.332;2022-09-24T01:26:29;3.47;;;3.17;;
13208;SDS011;6669;42.678;23.332;2022-09-24T01:29:16;4.50;;;3.37;;
13208;SDS011;6669;42.678;23.332;2022-09-24T01:31:55;3.93;;;3.20;;
13208;SDS011;6669;42.678;23.332;2022-09-24T01:34:32;3.70;;;3.30;;
13208;SDS011;6669;42.678;23.332;2022-09-24T01:37:05;4.23;;;3.37;;
13208;SDS011;6669;42.678;23.332;2022-09-24T01:39:34;4.77;;;3.47;;
13208;SDS011;6669;42.678;23.332;2022-09-24T01:42:04;3.80;;;3.37;;
13208;SDS011;6669;42.678;23.332;2022-09-24T01:44:34;3.90;;;3.17;;
13208;SDS011;6669;42.678;23.332;2022-09-24T01:47:03;4.07;;;3.40;;
13208;SDS011;6669;42.678;23.332;2022-09-24T01:49:32;3.43;;;3.13;;
13208;SDS011;6669;42.678;23.332;2022-09-24T01:52:02;4.90;;;3.50;;
13208;SDS011;6669;42.678;23.332;2022-09-24T01:54:36;3.13;;;2.83;;
13208;SDS011;6669;42.678;23.332;2022-09-24T01:57:10;3.63;;;3.30;;
13208;SDS011;6669;42.678;23.332;2022-09-24T01:59:41;4.20;;;3.80;;
13208;SDS011;6669;42.678;23.332;2022-09-24T02:02:16;4.90;;;3.47;;
13208;SDS011;6669;42.678;23.332;2022-09-24T02:04:49;3.47;;;3.10;;
13208;SDS011;6669;42.678;23.332;2022-09-24T02:07:23;4.00;;;3.30;;
13208;SDS011;6669;42.678;23.332;2022-09-24T02:09:55;4.60;;;3.37;;
13208;SDS011;6669;42.678;23.332;2022-09-24T02:12:24;3.93;;;3.53;;
13208;SDS011;6669;42.678;23.332;2022-09-24T02:14:59;4.87;;;3.60;;
13208;SDS011;6669;42.678;23.332;2022-09-24T02:17:33;4.47;;;3.63;;
13208;SDS011;6669;42.678;23.332;2022-09-24T02:20:05;5.07;;;3.90;;
13208;SDS011;6669;42.678;23.332;2022-09-24T02:22:39;4.63;;;3.73;;
13208;SDS011;6669;42.678;23.332;2022-09-24T02:25:09;4.00;;;3.53;;
13208;SDS011;6669;42.678;23.332;2022-09-24T02:27:40;5.17;;;3.53;;
13208;SDS011;6669;42.678;23.332;2022-09-24T02:30:10;4.07;;;3.20;;
13208;SDS011;6669;42.678;23.332;2022-09-24T02:32:39;4.67;;;3.87;;
13208;SDS011;6669;42.678;23.332;2022-09-24T02:35:09;4.80;;;3.33;;
13208;SDS011;6669;42.678;23.332;2022-09-24T02:37:38;4.93;;;3.57;;
13208;SDS011;6669;42.678;23.332;2022-09-24T02:40:08;3.23;;;2.93;;
13208;SDS011;6669;42.678;23.332;2022-09-24T02:42:38;4.13;;;3.73;;
13208;SDS011;6669;42.678;23.332;2022-09-24T02:45:10;4.37;;;3.57;;
13208;SDS011;6669;42.678;23.332;2022-09-24T02:47:39;4.83;;;4.00;;
13208;SDS011;6669;42.678;23.332;2022-09-24T02:50:07;4.43;;;3.53;;
13208;SDS011;6669;42.678;23.332;2022-09-24T02:52:35;4.50;;;3.57;;
13208;SDS011;6669;42.678;23.332;2022-09-24T02:55:04;4.43;;;3.73;;
13208;SDS011;6669;42.678;23.332;2022-09-24T02:57:32;4.80;;;3.83;;
13208;SDS011;6669;42.678;23.332;2022-09-24T03:00:00;4.10;;;3.70;;
13208;SDS011;6669;42.678;23.332;2022-09-24T03:02:29;4.73;;;3.53;;
13208;SDS011;6669;42.678;23.332;2022-09-24T03:04:57;5.67;;;4.20;;
13208;SDS011;6669;42.678;23.332;2022-09-24T03:07:25;5.63;;;4.13;;
13208;SDS011;6669;42.678;23.332;2022-09-24T03:09:53;6.17;;;4.23;;
13208;SDS011;6669;42.678;23.332;2022-09-24T03:12:21;5.33;;;3.87;;
13208;SDS011;6669;42.678;23.332;2022-09-24T03:14:50;4.80;;;3.97;;
13208;SDS011;6669;42.678;23.332;2022-09-24T03:17:18;4.70;;;4.00;;
13208;SDS011;6669;42.678;23.332;2022-09-24T03:19:47;5.90;;;4.23;;
13208;SDS011;6669;42.678;23.332;2022-09-24T03:22:15;5.63;;;3.93;;
13208;SDS011;6669;42.678;23.332;2022-09-24T03:24:43;6.07;;;4.20;;
13208;SDS011;6669;42.678;23.332;2022-09-24T03:27:11;5.23;;;4.03;;
13208;SDS011;6669;42.678;23.332;2022-09-24T03:29:39;5.70;;;4.03;;
13208;SDS011;6669;42.678;23.332;2022-09-24T03:32:24;5.23;;;4.20;;
13208;SDS011;6669;42.678;23.332;2022-09-24T03:34:54;5.90;;;4.40;;
13208;SDS011;6669;42.678;23.332;2022-09-24T03:37:22;4.70;;;4.20;;
13208;SDS011;6669;42.678;23.332;2022-09-24T03:39:50;5.07;;;3.87;;
13208;SDS011;6669;42.678;23.332;2022-09-24T03:42:18;4.40;;;4.00;;
13208;SDS011;6669;42.678;23.332;2022-09-24T03:44:46;5.10;;;4.13;;
13208;SDS011;6669;42.678;23.332;2022-09-24T03:47:13;5.23;;;3.77;;
13208;SDS011;6669;42.678;23.332;2022-09-24T03:49:41;5.37;;;4.23;;
13208;SDS011;6669;42.678;23.332;2022-09-24T03:52:11;4.17;;;3.60;;
13208;SDS011;6669;42.678;23.332;2022-09-24T03:54:39;4.63;;;4.00;;
13208;SDS011;6669;42.678;23.332;2022-09-24T03:57:07;4.97;;;3.97;;
13208;SDS011;6669;42.678;23.332;2022-09-24T03:59:35;5.70;;;4.40;;
13208;SDS011;6669;42.678;23.332;2022-09-24T04:02:03;4.17;;;3.77;;
13208;SDS011;6669;42.678;23.332;2022-09-24T04:04:31;6.33;;;4.23;;
13208;SDS011;6669;42.678;23.332;2022-09-24T04:06:58;4.67;;;4.13;;
13208;SDS011;6669;42.678;23.332;2022-09-24T04:09:28;5.43;;;4.20;;
13208;SDS011;6669;42.678;23.332;2022-09-24T04:11:56;5.30;;;4.10;;
13208;SDS011;6669;42.678;23.332;2022-09-24T04:14:24;4.20;;;3.60;;
13208;SDS011;6669;42.678;23.332;2022-09-24T04:16:52;5.43;;;4.13;;
13208;SDS011;6669;42.678;23.332;2022-09-24T04:19:20;4.90;;;3.90;;
13208;SDS011;6669;42.678;23.332;2022-09-24T04:21:48;4.30;;;3.50;;
13208;SDS011;6669;42.678;23.332;2022-09-24T04:24:16;4.93;;;4.30;;
13208;SDS011;6669;42.678;23.332;2022-09-24T04:26:47;5.67;;;4.13;;
13208;SDS011;6669;42.678;23.332;2022-09-24T04:29:15;5.20;;;3.97;;
13208;SDS011;6669;42.678;23.332;2022-09-24T04:31:43;4.77;;;4.27;;
13208;SDS011;6669;42.678;23.332;2022-09-24T04:34:12;5.00;;;4.07;;
13208;SDS011;6669;42.678;23.332;2022-09-24T04:36:40;4.97;;;4.20;;
13208;SDS011;6669;42.678;23.332;2022-09-24T04:39:09;4.53;;;4.10;;
13208;SDS011;6669;42.678;23.332;2022-09-24T04:41:37;5.67;;;3.80;;
13208;SDS011;6669;42.678;23.332;2022-09-24T04:44:07;5.03;;;3.90;;
13208;SDS011;6669;42.678;23.332;2022-09-24T04:46:36;4.47;;;3.47;;
13208;SDS011;6669;42.678;23.332;2022-09-24T04:49:06;4.23;;;3.80;;
13208;SDS011;6669;42.678;23.332;2022-09-24T04:51:35;4.90;;;3.63;;
13208;SDS011;6669;42.678;23.332;2022-09-24T04:54:03;5.03;;;3.97;;
13208;SDS011;6669;42.678;23.332;2022-09-24T04:56:31;4.20;;;3.43;;
13208;SDS011;6669;42.678;23.332;2022-09-24T04:58:59;4.47;;;3.47;;
13208;SDS011;6669;42.678;23.332;2022-09-24T05:01:30;4.50;;;3.90;;
13208;SDS011;6669;42.678;23.332;2022-09-24T05:03:58;4.97;;;4.03;;
13208;SDS011;6669;42.678;23.332;2022-09-24T05:06:27;5.43;;;4.40;;
13208;SDS011;6669;42.678;23.332;2022-09-24T05:08:55;5.80;;;4.03;;
13208;SDS011;6669;42.678;23.332;2022-09-24T05:11:23;7.30;;;4.07;;
13208;SDS011;6669;42.678;23.332;2022-09-24T05:13:51;4.77;;;4.10;;
13208;SDS011;6669;42.678;23.332;2022-09-24T05:16:19;4.83;;;3.73;;
13208;SDS011;6669;42.678;23.332;2022-09-24T05:18:49;4.40;;;3.67;;
13208;SDS011;6669;42.678;23.332;2022-09-24T05:21:17;5.70;;;4.17;;
13208;SDS011;6669;42.678;23.332;2022-09-24T05:23:45;4.00;;;3.57;;
13208;SDS011;6669;42.678;23.332;2022-09-24T05:26:13;5.57;;;4.43;;
13208;SDS011;6669;42.678;23.332;2022-09-24T05:28:58;5.70;;;4.47;;
13208;SDS011;6669;42.678;23.332;2022-09-24T05:31:27;5.37;;;4.50;;
13208;SDS011;6669;42.678;23.332;2022-09-24T05:33:56;4.67;;;4.17;;
13208;SDS011;6669;42.678;23.332;2022-09-24T05:36:24;5.53;;;4.43;;
13208;SDS011;6669;42.678;23.332;2022-09-24T05:38:52;4.40;;;3.90;;
13208;SDS011;6669;42.678;23.332;2022-09-24T05:41:20;5.60;;;4.13;;
13208;SDS011;6669;42.678;23.332;2022-09-24T05:43:48;6.83;;;4.60;;
13208;SDS011;6669;42.678;23.332;2022-09-24T05:46:16;4.50;;;4.00;;
13208;SDS011;6669;42.678;23.332;2022-09-24T05:48:44;5.60;;;4.80;;
13208;SDS011;6669;42.678;23.332;2022-09-24T05:51:13;5.83;;;4.57;;
13208;SDS011;6669;42.678;23.332;2022-09-24T05:53:41;6.37;;;4.77;;
13208;SDS011;6669;42.678;23.332;2022-09-24T05:56:09;5.37;;;4.50;;
13208;SDS011;6669;42.678;23.332;2022-09-24T05:58:37;5.73;;;4.83;;
13208;SDS011;6669;42.678;23.332;2022-09-24T06:01:05;6.60;;;5.17;;
13208;SDS011;6669;42.678;23.332;2022-09-24T06:03:33;8.40;;;4.73;;
13208;SDS011;6669;42.678;23.332;2022-09-24T06:06:01;6.00;;;4.67;;
13208;SDS011;6669;42.678;23.332;2022-09-24T06:08:30;7.20;;;4.83;;
13208;SDS011;6669;42.678;23.332;2022-09-24T06:10:59;7.30;;;5.20;;
13208;SDS011;6669;42.678;23.332;2022-09-24T06:13:28;7.23;;;5.50;;
13208;SDS011;6669;42.678;23.332;2022-09-24T06:16:00;8.53;;;6.53;;
13208;SDS011;6669;42.678;23.332;2022-09-24T06:18:29;10.50;;;6.37;;
13208;SDS011;6669;42.678;23.332;2022-09-24T06:20:59;6.57;;;4.97;;
13208;SDS011;6669;42.678;23.332;2022-09-24T06:23:28;6.57;;;5.27;;
13208;SDS011;6669;42.678;23.332;2022-09-24T06:25:58;6.90;;;5.43;;
13208;SDS011;6669;42.678;23.332;2022-09-24T06:28:26;6.03;;;4.70;;
13208;SDS011;6669;42.678;23.332;2022-09-24T06:30:54;6.37;;;5.37;;
13208;SDS011;6669;42.678;23.332;2022-09-24T06:33:22;4.97;;;4.30;;
13208;SDS011;6669;42.678;23.332;2022-09-24T06:35:50;6.53;;;4.87;;
13208;SDS011;6669;42.678;23.332;2022-09-24T06:38:18;7.40;;;4.50;;
13208;SDS011;6669;42.678;23.332;2022-09-24T06:40:47;6.30;;;4.67;;
13208;SDS011;6669;42.678;23.332;2022-09-24T06:43:15;5.67;;;4.67;;
13208;SDS011;6669;42.678;23.332;2022-09-24T06:45:44;4.93;;;4.50;;
13208;SDS011;6669;42.678;23.332;2022-09-24T06:48:13;5.17;;;4.43;;
13208;SDS011;6669;42.678;23.332;2022-09-24T06:50:41;4.30;;;3.90;;
13208;SDS011;6669;42.678;23.332;2022-09-24T06:53:11;5.33;;;4.17;;
13208;SDS011;6669;42.678;23.332;2022-09-24T06:55:39;4.37;;;3.97;;
13208;SDS011;6669;42.678;23.332;2022-09-24T06:58:09;5.17;;;4.00;;
13208;SDS011;6669;42.678;23.332;2022-09-24T07:00:39;8.70;;;5.97;;
13208;SDS011;6669;42.678;23.332;2022-09-24T07:03:09;6.23;;;4.30;;
13208;SDS011;6669;42.678;23.332;2022-09-24T07:05:41;5.27;;;4.63;;
13208;SDS011;6669;42.678;23.332;2022-09-24T07:08:09;5.13;;;3.80;;
13208;SDS011;6669;42.678;23.332;2022-09-24T07:10:40;4.77;;;3.70;;
13208;SDS011;6669;42.678;23.332;2022-09-24T07:13:11;5.03;;;4.00;;
13208;SDS011;6669;42.678;23.332;2022-09-24T07:15:39;5.10;;;3.43;;
13208;SDS011;6669;42.678;23.332;2022-09-24T07:18:08;7.10;;;3.60;;
13208;SDS011;6669;42.678;23.332;2022-09-24T07:20:36;5.43;;;4.00;;
13208;SDS011;6669;42.678;23.332;2022-09-24T07:23:04;5.53;;;3.83;;
13208;SDS011;6669;42.678;23.332;2022-09-24T07:25:33;4.30;;;3.87;;
13208;SDS011;6669;42.678;23.332;2022-09-24T07:28:03;4.63;;;3.80;;
13208;SDS011;6669;42.678;23.332;2022-09-24T07:30:33;5.07;;;4.07;;
13208;SDS011;6669;42.678;23.332;2022-09-24T07:33:02;5.47;;;4.10;;
13208;SDS011;6669;42.678;23.332;2022-09-24T07:35:30;5.47;;;4.20;;
13208;SDS011;6669;42.678;23.332;2022-09-24T07:37:58;8.83;;;5.20;;
13208;SDS011;6669;42.678;23.332;2022-09-24T07:40:28;3.73;;;3.33;;
13208;SDS011;6669;42.678;23.332;2022-09-24T07:42:57;5.67;;;4.13;;
13208;SDS011;6669;42.678;23.332;2022-09-24T07:45:26;4.13;;;3.73;;
13208;SDS011;6669;42.678;23.332;2022-09-24T07:47:57;4.33;;;3.80;;
13208;SDS011;6669;42.678;23.332;2022-09-24T07:50:25;5.33;;;4.33;;
13208;SDS011;6669;42.678;23.332;2022-09-24T07:52:55;6.30;;;3.80;;
13208;SDS011;6669;42.678;23.332;2022-09-24T07:55:23;4.83;;;3.70;;
13208;SDS011;6669;42.678;23.332;2022-09-24T07:57:52;4.57;;;3.87;;
13208;SDS011;6669;42.678;23.332;2022-09-24T08:00:21;6.47;;;3.43;;
13208;SDS011;6669;42.678;23.332;2022-09-24T08:02:50;3.73;;;3.33;;
13208;SDS011;6669;42.678;23.332;2022-09-24T08:05:20;3.90;;;3.50;;
13208;SDS011;6669;42.678;23.332;2022-09-24T08:07:51;5.00;;;3.70;;
13208;SDS011;6669;42.678;23.332;2022-09-24T08:10:20;4.33;;;3.50;;
13208;SDS011;6669;42.678;23.332;2022-09-24T08:12:48;4.43;;;3.70;;
13208;SDS011;6669;42.678;23.332;2022-09-24T08:15:17;3.50;;;3.08;;
13208;SDS011;6669;42.678;23.332;2022-09-24T08:17:45;3.05;;;2.75;;
13208;SDS011;6669;42.678;23.332;2022-09-24T08:20:13;7.35;;;3.20;;
13208;SDS011;6669;42.678;23.332;2022-09-24T08:22:42;3.88;;;3.38;;
13208;SDS011;6669;42.678;23.332;2022-09-24T08:25:10;4.45;;;3.47;;
13208;SDS011;6669;42.678;23.332;2022-09-24T08:27:38;4.78;;;3.90;;
13208;SDS011;6669;42.678;23.332;2022-09-24T08:30:07;3.70;;;3.28;;
13208;SDS011;6669;42.678;23.332;2022-09-24T08:32:36;4.43;;;3.30;;
13208;SDS011;6669;42.678;23.332;2022-09-24T08:35:04;3.58;;;3.17;;
13208;SDS011;6669;42.678;23.332;2022-09-24T08:37:33;3.63;;;3.13;;
13208;SDS011;6669;42.678;23.332;2022-09-24T08:40:04;3.60;;;3.17;;
13208;SDS011;6669;42.678;23.332;2022-09-24T08:42:34;4.03;;;3.42;;
13208;SDS011;6669;42.678;23.332;2022-09-24T08:45:10;3.92;;;3.30;;
13208;SDS011;6669;42.678;23.332;2022-09-24T08:47:56;3.85;;;2.83;;
13208;SDS011;6669;42.678;23.332;2022-09-24T08:50:28;3.55;;;3.03;;
13208;SDS011;6669;42.678;23.332;2022-09-24T08:53:02;6.63;;;5.32;;
13208;SDS011;6669;42.678;23.332;2022-09-24T08:55:41;5.18;;;4.35;;
13208;SDS011;6669;42.678;23.332;2022-09-24T08:58:24;4.97;;;3.53;;
13208;SDS011;6669;42.678;23.332;2022-09-24T09:01:00;4.13;;;3.65;;
13208;SDS011;6669;42.678;23.332;2022-09-24T09:03:35;5.18;;;3.72;;
13208;SDS011;6669;42.678;23.332;2022-09-24T09:06:10;3.90;;;3.55;;
13208;SDS011;6669;42.678;23.332;2022-09-24T09:08:51;4.07;;;3.42;;
13208;SDS011;6669;42.678;23.332;2022-09-24T09:11:35;3.72;;;3.17;;
13208;SDS011;6669;42.678;23.332;2022-09-24T09:14:07;4.65;;;3.40;;
13208;SDS011;6669;42.678;23.332;2022-09-24T09:16:42;3.80;;;3.38;;
13208;SDS011;6669;42.678;23.332;2022-09-24T09:19:16;5.78;;;3.10;;
13208;SDS011;6669;42.678;23.332;2022-09-24T09:21:47;3.72;;;3.17;;
13208;SDS011;6669;42.678;23.332;2022-09-24T09:24:20;4.68;;;3.60;;
13208;SDS011;6669;42.678;23.332;2022-09-24T09:26:55;4.63;;;3.88;;
13208;SDS011;6669;42.678;23.332;2022-09-24T09:29:23;8.15;;;3.63;;
13208;SDS011;6669;42.678;23.332;2022-09-24T09:31:56;3.67;;;3.22;;
13208;SDS011;6669;42.678;23.332;2022-09-24T09:34:41;4.43;;;3.85;;
13208;SDS011;6669;42.678;23.332;2022-09-24T09:37:20;5.75;;;3.72;;
13208;SDS011;6669;42.678;23.332;2022-09-24T09:39:56;5.78;;;3.80;;
13208;SDS011;6669;42.678;23.332;2022-09-24T09:42:36;6.47;;;3.95;;
13208;SDS011;6669;42.678;23.332;2022-09-24T09:45:14;5.53;;;4.47;;
13208;SDS011;6669;42.678;23.332;2022-09-24T09:47:54;5.05;;;4.00;;
13208;SDS011;6669;42.678;23.332;2022-09-24T09:50:25;4.72;;;3.45;;
13208;SDS011;6669;42.678;23.332;2022-09-24T09:52:54;4.05;;;3.65;;
13208;SDS011;6669;42.678;23.332;2022-09-24T09:55:23;5.97;;;4.63;;
13208;SDS011;6669;42.678;23.332;2022-09-24T09:57:57;8.52;;;3.53;;
13208;SDS011;6669;42.678;23.332;2022-09-24T10:00:36;4.05;;;3.63;;
13208;SDS011;6669;42.678;23.332;2022-09-24T10:03:04;4.03;;;3.47;;
13208;SDS011;6669;42.678;23.332;2022-09-24T10:05:33;3.75;;;3.45;;
13208;SDS011;6669;42.678;23.332;2022-09-24T10:08:01;4.97;;;3.80;;
13208;SDS011;6669;42.678;23.332;2022-09-24T10:10:29;3.65;;;3.28;;
13208;SDS011;6669;42.678;23.332;2022-09-24T10:13:08;3.60;;;3.30;;
13208;SDS011;6669;42.678;23.332;2022-09-24T10:15:39;3.40;;;2.85;;
13208;SDS011;6669;42.678;23.332;2022-09-24T10:18:16;3.40;;;3.10;;
13208;SDS011;6669;42.678;23.332;2022-09-24T10:20:54;3.15;;;2.85;;
13208;SDS011;6669;42.678;23.332;2022-09-24T10:23:25;3.35;;;3.03;;
13208;SDS011;6669;42.678;23.332;2022-09-24T10:26:00;3.50;;;3.00;;
13208;SDS011;6669;42.678;23.332;2022-09-24T10:28:31;7.95;;;5.40;;
13208;SDS011;6669;42.678;23.332;2022-09-24T10:31:18;3.22;;;2.85;;
13208;SDS011;6669;42.678;23.332;2022-09-24T10:33:49;2.92;;;2.65;;
13208;SDS011;6669;42.678;23.332;2022-09-24T10:36:20;3.28;;;2.97;;
13208;SDS011;6669;42.678;23.332;2022-09-24T10:38:59;3.17;;;2.67;;
13208;SDS011;6669;42.678;23.332;2022-09-24T10:41:29;3.30;;;3.00;;
13208;SDS011;6669;42.678;23.332;2022-09-24T10:44:00;2.63;;;2.42;;
13208;SDS011;6669;42.678;23.332;2022-09-24T10:46:36;1.77;;;1.63;;
13208;SDS011;6669;42.678;23.332;2022-09-24T10:49:29;2.17;;;1.30;;
13208;SDS011;6669;42.678;23.332;2022-09-24T10:52:10;2.40;;;1.60;;
13208;SDS011;6669;42.678;23.332;2022-09-24T10:54:53;1.27;;;1.17;;
13208;SDS011;6669;42.678;23.332;2022-09-24T10:57:31;1.77;;;1.67;;
13208;SDS011;6669;42.678;23.332;2022-09-24T11:00:09;1.30;;;1.20;;
13208;SDS011;6669;42.678;23.332;2022-09-24T11:02:47;1.73;;;1.38;;
13208;SDS011;6669;42.678;23.332;2022-09-24T11:05:29;2.63;;;1.30;;
13208;SDS011;6669;42.678;23.332;2022-09-24T11:08:07;1.40;;;1.30;;
13208;SDS011;6669;42.678;23.332;2022-09-24T11:10:57;1.50;;;1.40;;
13208;SDS011;6669;42.678;23.332;2022-09-24T11:13:44;1.50;;;1.40;;
13208;SDS011;6669;42.678;23.332;2022-09-24T11:16:40;1.63;;;1.38;;
13208;SDS011;6669;42.678;23.332;2022-09-24T11:19:24;1.58;;;1.48;;
13208;SDS011;6669;42.678;23.332;2022-09-24T11:22:08;1.80;;;1.40;;
13208;SDS011;6669;42.678;23.332;2022-09-24T11:24:53;1.35;;;1.25;;
13208;SDS011;6669;42.678;23.332;2022-09-24T11:27:48;1.88;;;1.52;;
13208;SDS011;6669;42.678;23.332;2022-09-24T11:30:23;1.40;;;1.30;;
13208;SDS011;6669;42.678;23.332;2022-09-24T11:33:03;1.52;;;1.42;;
13208;SDS011;6669;42.678;23.332;2022-09-24T11:35:54;2.10;;;1.00;;
13208;SDS011;6669;42.678;23.332;2022-09-24T11:38:32;1.10;;;1.10;;
13208;SDS011;6669;42.678;23.332;2022-09-24T11:41:18;2.50;;;1.27;;
13208;SDS011;6669;42.678;23.332;2022-09-24T11:44:03;1.92;;;1.83;;
13208;SDS011;6669;42.678;23.332;2022-09-24T11:46:45;1.30;;;1.20;;
13208;SDS011;6669;42.678;23.332;2022-09-24T11:49:27;1.45;;;1.35;;
13208;SDS011;6669;42.678;23.332;2022-09-24T11:52:12;1.45;;;1.35;;
13208;SDS011;6669;42.678;23.332;2022-09-24T11:54:47;1.50;;;1.40;;
13208;SDS011;6669;42.678;23.332;2022-09-24T11:57:23;1.55;;;1.45;;
13208;SDS011;6669;42.678;23.332;2022-09-24T11:59:57;1.67;;;1.40;;
13208;SDS011;6669;42.678;23.332;2022-09-24T12:02:31;1.77;;;1.65;;
13208;SDS011;6669;42.678;23.332;2022-09-24T12:05:06;1.20;;;1.10;;
13208;SDS011;6669;42.678;23.332;2022-09-24T12:07:41;2.28;;;1.45;;
13208;SDS011;6669;42.678;23.332;2022-09-24T12:10:22;1.40;;;1.30;;
13208;SDS011;6669;42.678;23.332;2022-09-24T12:12:56;1.42;;;1.33;;
13208;SDS011;6669;42.678;23.332;2022-09-24T12:15:40;1.23;;;1.15;;
13208;SDS011;6669;42.678;23.332;2022-09-24T12:18:14;1.42;;;1.33;;
13208;SDS011;6669;42.678;23.332;2022-09-24T12:20:47;1.67;;;1.50;;
13208;SDS011;6669;42.678;23.332;2022-09-24T12:23:20;1.40;;;1.30;;
13208;SDS011;6669;42.678;23.332;2022-09-24T12:25:53;1.48;;;1.38;;
13208;SDS011;6669;42.678;23.332;2022-09-24T12:28:23;1.17;;;1.10;;
13208;SDS011;6669;42.678;23.332;2022-09-24T12:31:18;1.23;;;1.13;;
13208;SDS011;6669;42.678;23.332;2022-09-24T12:34:12;1.25;;;1.15;;
13208;SDS011;6669;42.678;23.332;2022-09-24T12:36:50;1.45;;;1.35;;
13208;SDS011;6669;42.678;23.332;2022-09-24T12:39:25;1.40;;;1.30;;
13208;SDS011;6669;42.678;23.332;2022-09-24T12:41:58;2.38;;;1.40;;
13208;SDS011;6669;42.678;23.332;2022-09-24T12:44:31;1.50;;;1.40;;
13208;SDS011;6669;42.678;23.332;2022-09-24T12:47:12;1.60;;;1.50;;
13208;SDS011;6669;42.678;23.332;2022-09-24T12:49:46;1.40;;;1.30;;
13208;SDS011;6669;42.678;23.332;2022-09-24T12:52:22;1.60;;;1.50;;
13208;SDS011;6669;42.678;23.332;2022-09-24T12:54:53;1.70;;;1.60;;
13208;SDS011;6669;42.678;23.332;2022-09-24T12:57:26;1.30;;;1.20;;
13208;SDS011;6669;42.678;23.332;2022-09-24T12:59:58;1.48;;;1.38;;
13208;SDS011;6669;42.678;23.332;2022-09-24T13:02:28;2.45;;;1.20;;
13208;SDS011;6669;42.678;23.332;2022-09-24T13:05:14;1.17;;;1.13;;
13208;SDS011;6669;42.678;23.332;2022-09-24T13:07:55;1.17;;;1.10;;
13208;SDS011;6669;42.678;23.332;2022-09-24T13:10:27;2.15;;;1.30;;
13208;SDS011;6669;42.678;23.332;2022-09-24T13:12:56;3.35;;;1.50;;
13208;SDS011;6669;42.678;23.332;2022-09-24T13:15:29;1.38;;;1.10;;
13208;SDS011;6669;42.678;23.332;2022-09-24T13:18:00;2.55;;;1.30;;
13208;SDS011;6669;42.678;23.332;2022-09-24T13:20:31;1.73;;;1.63;;
13208;SDS011;6669;42.678;23.332;2022-09-24T13:23:12;2.13;;;1.45;;
13208;SDS011;6669;42.678;23.332;2022-09-24T13:25:57;1.50;;;1.40;;
13208;SDS011;6669;42.678;23.332;2022-09-24T13:28:29;1.92;;;1.40;;
13208;SDS011;6669;42.678;23.332;2022-09-24T13:31:08;1.65;;;1.50;;
13208;SDS011;6669;42.678;23.332;2022-09-24T13:33:43;1.38;;;1.27;;
13208;SDS011;6669;42.678;23.332;2022-09-24T13:36:13;1.63;;;1.30;;
13208;SDS011;6669;42.678;23.332;2022-09-24T13:38:48;1.60;;;1.50;;
13208;SDS011;6669;42.678;23.332;2022-09-24T13:41:25;1.50;;;1.40;;
13208;SDS011;6669;42.678;23.332;2022-09-24T13:44:03;1.50;;;1.30;;
13208;SDS011;6669;42.678;23.332;2022-09-24T13:46:38;1.55;;;1.17;;
13208;SDS011;6669;42.678;23.332;2022-09-24T13:49:10;1.10;;;1.10;;
13208;SDS011;6669;42.678;23.332;2022-09-24T13:51:43;1.60;;;1.50;;
13208;SDS011;6669;42.678;23.332;2022-09-24T13:54:18;2.10;;;1.33;;
13208;SDS011;6669;42.678;23.332;2022-09-24T13:56:58;1.48;;;1.38;;
13208;SDS011;6669;42.678;23.332;2022-09-24T13:59:36;1.45;;;1.35;;
13208;SDS011;6669;42.678;23.332;2022-09-24T14:02:18;1.20;;;1.20;;
13208;SDS011;6669;42.678;23.332;2022-09-24T14:04:54;1.60;;;1.50;;
13208;SDS011;6669;42.678;23.332;2022-09-24T14:07:25;1.27;;;1.20;;
13208;SDS011;6669;42.678;23.332;2022-09-24T14:10:02;1.50;;;1.40;;
13208;SDS011;6669;42.678;23.332;2022-09-24T14:12:32;1.50;;;1.40;;
13208;SDS011;6669;42.678;23.332;2022-09-24T14:15:03;1.63;;;1.42;;
13208;SDS011;6669;42.678;23.332;2022-09-24T14:17:41;1.33;;;1.23;;
13208;SDS011;6669;42.678;23.332;2022-09-24T14:20:11;1.58;;;1.48;;
13208;SDS011;6669;42.678;23.332;2022-09-24T14:22:41;1.30;;;1.20;;
13208;SDS011;6669;42.678;23.332;2022-09-24T14:25:14;2.10;;;1.60;;
13208;SDS011;6669;42.678;23.332;2022-09-24T14:27:44;1.40;;;1.30;;
13208;SDS011;6669;42.678;23.332;2022-09-24T14:30:16;1.27;;;1.17;;
13208;SDS011;6669;42.678;23.332;2022-09-24T14:32:49;2.40;;;1.90;;
13208;SDS011;6669;42.678;23.332;2022-09-24T14:35:18;2.22;;;1.42;;
13208;SDS011;6669;42.678;23.332;2022-09-24T14:37:56;1.88;;;1.60;;
13208;SDS011;6669;42.678;23.332;2022-09-24T14:40:35;1.67;;;1.58;;
13208;SDS011;6669;42.678;23.332;2022-09-24T14:43:13;1.75;;;1.63;;
13208;SDS011;6669;42.678;23.332;2022-09-24T14:45:44;1.92;;;1.73;;
13208;SDS011;6669;42.678;23.332;2022-09-24T14:48:16;1.30;;;1.20;;
13208;SDS011;6669;42.678;23.332;2022-09-24T14:50:47;1.40;;;1.30;;
13208;SDS011;6669;42.678;23.332;2022-09-24T14:53:19;1.60;;;1.50;;
13208;SDS011;6669;42.678;23.332;2022-09-24T14:55:50;1.73;;;1.55;;
13208;SDS011;6669;42.678;23.332;2022-09-24T14:58:23;1.85;;;1.60;;
13208;SDS011;6669;42.678;23.332;2022-09-24T15:00:52;1.58;;;1.48;;
13208;SDS011;6669;42.678;23.332;2022-09-24T15:03:25;2.03;;;1.58;;
13208;SDS011;6669;42.678;23.332;2022-09-24T15:06:06;1.60;;;1.50;;
13208;SDS011;6669;42.678;23.332;2022-09-24T15:08:55;1.73;;;1.63;;
13208;SDS011;6669;42.678;23.332;2022-09-24T15:11:27;2.40;;;1.60;;
13208;SDS011;6669;42.678;23.332;2022-09-24T15:14:01;1.80;;;1.50;;
13208;SDS011;6669;42.678;23.332;2022-09-24T15:16:39;1.65;;;1.55;;
13208;SDS011;6669;42.678;23.332;2022-09-24T15:19:14;1.80;;;1.70;;
13208;SDS011;6669;42.678;23.332;2022-09-24T15:21:45;1.80;;;1.70;;
13208;SDS011;6669;42.678;23.332;2022-09-24T15:24:15;1.88;;;1.77;;
13208;SDS011;6669;42.678;23.332;2022-09-24T15:26:45;1.60;;;1.50;;